Pirai, Brazil
Current Conditions -  °F | °C
As of 2:00 AM on Wednesday 22 Oct 2014 (Local Time) from SBSC Reporting Station
Broken Clouds Broken Clouds  
Wind Chill: 66°   Ceiling: 3500
Heat Index: 66°   Visibility: 6mi
Dew Point: 66°   Wind: 3mph
Humidity: 100%   Direction: 160°SSE
Pressure: 30.15"   Gusts: NA
Location:  22.63°S, 43.9°W
Report Text: SBSC 220400Z 16003KT 9999 SCT025 BKN035 19/19 Q1021
Loading
Personal Weather Stations






























Interactive Weather Map
Tropical Storm Tracking
New forecast layout! Learn more

10-Day Weather Forecast

Advertisements
Track Severe Weather on mobile